Mount Washington, Maryland
Current Conditions -  °F | °C
As of 2:54 PM on Friday 31 Oct 2014 (Local Time) from KBWI Reporting Station
Broken Clouds Broken Clouds  
Wind Chill: 57°   Ceiling: 15000
Heat Index: 57°   Visibility: 10mi
Dew Point: 33°   Wind: 3mph
Humidity: 40%   Direction: 330°NNW
Pressure: 29.89"   Gusts: NA
Location:  39.3715°N, 76.6675°W
Report Text: KBWI 311854Z 33003KT 10SM FEW027 SCT055 BKN150 BKN250 14/01 A2989 RMK AO2 SLP120 T01390006
Loading
Personal Weather Stations






























Interactive Weather Map
Tropical Storm Tracking
New forecast layout! Learn more

10-Day Weather Forecast

Advertisements
Track Severe Weather on mobile